createdAt,value
2022-10-29T00:01:25.358Z,101435.78
2022-10-29T00:03:52.290Z,101478.19
2022-10-29T00:06:19.038Z,101434.09
2022-10-29T00:08:45.903Z,101466.34
2022-10-29T00:11:18.436Z,101421.94
2022-10-29T00:13:46.111Z,101485.19
2022-10-29T00:16:18.845Z,101361.59
2022-10-29T00:18:45.881Z,101492.41
2022-10-29T00:21:18.390Z,101490.66
2022-10-29T00:23:48.427Z,101381.53
2022-10-29T00:26:16.109Z,101403.09
2022-10-29T00:28:43.142Z,101489.06
2022-10-29T00:31:15.673Z,101411.47
2022-10-29T00:33:47.719Z,101327.91
2022-10-29T00:36:17.087Z,101436.22
2022-10-29T00:38:53.855Z,101478.19
2022-10-29T00:41:23.380Z,101486.19
2022-10-29T00:43:52.506Z,101329.88
2022-10-29T00:46:30.624Z,101342.00
2022-10-29T00:49:01.044Z,101345.72
2022-10-29T00:51:28.847Z,101477.50
2022-10-29T00:54:05.184Z,101487.75
2022-10-29T00:56:35.562Z,101394.84
2022-10-29T00:59:03.138Z,101472.63
2022-10-29T01:01:32.247Z,101329.94
2022-10-29T01:04:00.242Z,101451.56
2022-10-29T01:06:28.589Z,101470.56
2022-10-29T01:08:55.226Z,101322.31
2022-10-29T01:11:57.322Z,101451.91
2022-10-29T01:14:54.389Z,101449.66
2022-10-29T01:17:33.051Z,101361.13
2022-10-29T01:20:47.853Z,101430.72
2022-10-29T01:23:17.405Z,101426.28
2022-10-29T01:26:11.270Z,101430.09
2022-10-29T01:29:02.482Z,101432.91
2022-10-29T01:31:31.655Z,101434.81
2022-10-29T01:34:20.039Z,101428.16
2022-10-29T01:37:18.363Z,101425.66
2022-10-29T01:39:50.102Z,101203.75
2022-10-29T01:42:54.004Z,101420.69
2022-10-29T01:45:28.178Z,101414.47
2022-10-29T01:48:07.286Z,101379.47
2022-10-29T01:50:34.281Z,101288.66
2022-10-29T01:53:01.089Z,101361.47
2022-10-29T01:55:35.926Z,101342.72
2022-10-29T01:58:04.151Z,101395.34
2022-10-29T02:00:40.895Z,101381.44
2022-10-29T02:03:12.981Z,101408.47
2022-10-29T02:05:51.473Z,101413.13
2022-10-29T02:08:23.346Z,101413.19
2022-10-29T02:10:54.317Z,101407.75
2022-10-29T02:13:24.562Z,101413.97
2022-10-29T02:15:56.868Z,101323.31
2022-10-29T02:18:23.624Z,101429.34
2022-10-29T02:20:50.787Z,101404.91
2022-10-29T02:23:17.521Z,101301.97
2022-10-29T02:25:46.611Z,101354.84
2022-10-29T02:28:15.617Z,101236.75
2022-10-29T02:30:42.369Z,101380.31
2022-10-29T02:33:09.079Z,101406.78
2022-10-29T02:35:38.127Z,101399.59
2022-10-29T02:38:04.799Z,101318.53
2022-10-29T02:40:31.449Z,101391.63
2022-10-29T02:43:02.988Z,101186.81
2022-10-29T02:45:29.769Z,101374.88
2022-10-29T02:47:56.602Z,101307.78
2022-10-29T02:50:25.921Z,101295.06
2022-10-29T02:52:52.648Z,101317.81
2022-10-29T02:55:22.034Z,101349.47
2022-10-29T02:57:48.786Z,101315.63
2022-10-29T03:00:15.765Z,101348.13
2022-10-29T03:02:44.735Z,101335.56
2022-10-29T03:05:13.605Z,101324.91
2022-10-29T03:07:42.530Z,101335.00
2022-10-29T03:10:11.717Z,101322.41
2022-10-29T03:12:40.957Z,101408.72
2022-10-29T03:15:12.627Z,101379.13
2022-10-29T03:17:39.170Z,101402.28
2022-10-29T03:20:06.318Z,101399.28
2022-10-29T03:22:35.258Z,101398.84
2022-10-29T03:25:06.772Z,101342.34
2022-10-29T03:27:35.845Z,101280.06
2022-10-29T03:30:05.235Z,101261.06
2022-10-29T03:32:34.400Z,101329.66
2022-10-29T03:35:03.495Z,101279.66
2022-10-29T03:37:30.413Z,101286.50
2022-10-29T03:40:01.877Z,101388.78
2022-10-29T03:42:31.187Z,101382.91
2022-10-29T03:45:01.703Z,101261.16
2022-10-29T03:47:29.079Z,101328.22
2022-10-29T03:49:55.830Z,101382.34
2022-10-29T03:52:22.639Z,101312.06
2022-10-29T03:54:49.464Z,101302.00
2022-10-29T03:57:21.505Z,101384.53
2022-10-29T03:59:52.562Z,101209.09
2022-10-29T04:02:19.820Z,101284.13
2022-10-29T04:04:46.636Z,101244.06
2022-10-29T04:07:13.346Z,101360.59
2022-10-29T04:09:42.255Z,101357.66
2022-10-29T04:12:09.542Z,101392.13
2022-10-29T04:14:38.974Z,101391.47
2022-10-29T04:17:12.038Z,101401.19
2022-10-29T04:19:38.569Z,101390.38
2022-10-29T04:30:28.159Z,101314.28
2022-10-29T04:32:59.237Z,101395.13
2022-10-29T04:35:29.620Z,101319.53
2022-10-29T04:37:58.976Z,101216.91
2022-10-29T04:40:25.726Z,101382.66
2022-10-29T04:42:52.637Z,101298.41
2022-10-29T04:45:23.992Z,101397.13
2022-10-29T04:48:04.132Z,101295.41
2022-10-29T04:50:34.205Z,101381.03
2022-10-29T04:53:04.920Z,101222.47
2022-10-29T04:55:37.083Z,101306.91
2022-10-29T04:58:09.939Z,101301.28
2022-10-29T05:00:38.941Z,101396.72
2022-10-29T05:03:05.804Z,101373.94
2022-10-29T05:05:32.564Z,101210.69
2022-10-29T05:08:02.833Z,101392.09
2022-10-29T05:10:36.173Z,101372.38
2022-10-29T05:13:07.115Z,101399.97
2022-10-29T05:15:36.820Z,101399.06
2022-10-29T05:18:09.368Z,101348.31
2022-10-29T05:20:36.337Z,101363.53
2022-10-29T05:23:07.793Z,101382.41
2022-10-29T05:25:38.463Z,101387.50
2022-10-29T05:28:09.314Z,101388.88
2022-10-29T05:30:36.432Z,101316.28
2022-10-29T05:33:08.808Z,101277.38
2022-10-29T05:35:38.430Z,101190.00
2022-10-29T05:38:09.250Z,101275.13
2022-10-29T05:40:36.004Z,101286.75
2022-10-29T05:43:02.692Z,101316.44
2022-10-29T05:45:29.770Z,101248.53
2022-10-29T05:48:02.974Z,101231.03
2022-10-29T05:50:32.645Z,101308.13
2022-10-29T05:53:04.324Z,101312.63
2022-10-29T05:55:32.665Z,101393.66
2022-10-29T05:58:06.140Z,101366.97
2022-10-29T06:00:35.557Z,101245.81
2022-10-29T06:03:02.623Z,101384.50
2022-10-29T06:05:29.555Z,101386.41
2022-10-29T06:08:00.199Z,101281.53
2022-10-29T06:10:28.829Z,101236.78
2022-10-29T06:12:55.487Z,101235.56
2022-10-29T06:15:23.093Z,101387.41
2022-10-29T06:17:50.145Z,101394.09
2022-10-29T06:20:19.820Z,101391.09
2022-10-29T06:22:57.118Z,101240.91
2022-10-29T06:25:27.597Z,101394.84
2022-10-29T06:28:07.521Z,101403.03
2022-10-29T06:30:37.022Z,101410.53
2022-10-29T06:33:04.754Z,101405.75
2022-10-29T06:35:31.857Z,101409.41
2022-10-29T06:38:09.266Z,101302.69
2022-10-29T06:40:43.818Z,101357.53
2022-10-29T06:43:12.799Z,101392.94
2022-10-29T06:45:42.020Z,101339.50
2022-10-29T06:48:14.607Z,101387.59
2022-10-29T06:50:44.437Z,101357.31
2022-10-29T06:53:14.918Z,101344.03
2022-10-29T06:55:41.723Z,101249.16
2022-10-29T06:58:14.879Z,101394.56
2022-10-29T07:00:46.946Z,101391.06
2022-10-29T07:03:17.509Z,101290.06
2022-10-29T07:05:47.336Z,101338.06
2022-10-29T07:08:18.692Z,101314.50
2022-10-29T07:10:54.354Z,101385.06
2022-10-29T07:13:36.568Z,101360.75
2022-10-29T07:16:03.339Z,101329.63
2022-10-29T07:18:34.657Z,101322.09
2022-10-29T07:21:05.185Z,101312.53
2022-10-29T07:23:34.498Z,101434.25
2022-10-29T07:26:03.386Z,101436.97
2022-10-29T07:29:37.519Z,101295.78
2022-10-29T07:32:30.414Z,100710.09
2022-10-29T07:35:17.619Z,101303.63
2022-10-29T07:37:44.322Z,101309.28
2022-10-29T07:40:18.645Z,101438.34
2022-10-29T07:42:51.599Z,101345.63
2022-10-29T07:45:20.797Z,101274.16
2022-10-29T07:48:03.284Z,101372.75
2022-10-29T07:50:34.597Z,101424.47
2022-10-29T07:53:07.034Z,101198.06
2022-10-29T07:55:35.947Z,101222.19
2022-10-29T07:58:05.414Z,101420.31
2022-10-29T08:00:37.979Z,101335.09
2022-10-29T08:03:05.792Z,101272.78
2022-10-29T08:05:56.331Z,101205.56
2022-10-29T08:08:23.544Z,101358.38
2022-10-29T08:10:50.275Z,101372.03
2022-10-29T08:13:19.237Z,101332.88
2022-10-29T08:16:17.991Z,101358.50
2022-10-29T08:19:10.414Z,101431.50
2022-10-29T08:22:02.556Z,100728.41
2022-10-29T08:26:47.836Z,100784.50
2022-10-29T08:28:30.410Z,100712.84
2022-10-29T08:35:05.797Z,100991.25
2022-10-29T08:42:03.618Z,101429.44
2022-10-29T08:44:56.069Z,101382.38
2022-10-29T08:47:33.441Z,101302.31
2022-10-29T08:50:14.562Z,101376.22
2022-10-29T08:52:53.319Z,101214.88
2022-10-29T08:55:36.718Z,101304.94
2022-10-29T08:58:40.429Z,101354.44
2022-10-29T09:01:11.575Z,101349.94
2022-10-29T09:03:45.900Z,101142.28
2022-10-29T09:06:17.756Z,101415.84
2022-10-29T09:08:59.462Z,101295.28
2022-10-29T09:11:35.912Z,101391.38
2022-10-29T09:14:17.266Z,101405.88
2022-10-29T09:16:47.806Z,101272.97
2022-10-29T09:19:52.969Z,101405.91
2022-10-29T09:22:25.342Z,101407.38
2022-10-29T09:25:12.223Z,101397.28
2022-10-29T09:28:02.610Z,101412.19
2022-10-29T09:30:33.546Z,101335.78
2022-10-29T09:33:05.152Z,101321.63
2022-10-29T09:35:39.332Z,101260.41
2022-10-29T09:38:36.836Z,101399.16
2022-10-29T09:41:15.768Z,101300.09
2022-10-29T09:43:47.795Z,101321.97
2022-10-29T09:46:46.698Z,101385.03
2022-10-29T09:49:44.869Z,101379.31
2022-10-29T09:52:21.809Z,101324.81
2022-10-29T09:54:57.564Z,101395.38
2022-10-29T09:57:29.593Z,101343.56
2022-10-29T09:59:59.094Z,101391.50
2022-10-29T10:02:39.006Z,101384.25
2022-10-29T10:05:18.558Z,101303.91
2022-10-29T10:08:04.434Z,101139.81
2022-10-29T10:10:31.908Z,101355.47
2022-10-29T10:13:10.744Z,101375.59
2022-10-29T10:15:55.517Z,101350.56
2022-10-29T10:18:33.855Z,101373.25
2022-10-29T10:21:00.619Z,101367.81
2022-10-29T10:23:34.331Z,101365.03
2022-10-29T10:26:05.294Z,101328.00
2022-10-29T10:28:34.760Z,101262.19
2022-10-29T10:31:04.402Z,101363.09
2022-10-29T10:33:35.442Z,101246.09
2022-10-29T10:36:14.440Z,101148.25
2022-10-29T10:38:50.340Z,101275.50
2022-10-29T10:41:31.203Z,101244.41
2022-10-29T10:44:05.257Z,101338.84
2022-10-29T10:46:40.376Z,101312.94
2022-10-29T10:49:15.170Z,101292.38
2022-10-29T10:51:52.183Z,101237.44
2022-10-29T10:54:34.319Z,101293.69
2022-10-29T10:57:28.415Z,101288.84
2022-10-29T11:00:06.546Z,101338.75
2022-10-29T11:03:11.869Z,101338.72
2022-10-29T11:05:46.541Z,101342.88
2022-10-29T11:08:39.558Z,101332.16
2022-10-29T11:11:25.028Z,101337.50
2022-10-29T11:13:55.306Z,101285.22
2022-10-29T11:16:41.119Z,101324.22
2022-10-29T11:19:31.303Z,101303.56
2022-10-29T11:22:13.265Z,101323.13
2022-10-29T11:24:47.512Z,101214.25
2022-10-29T11:27:45.326Z,101316.47
2022-10-29T11:30:16.466Z,101307.63
2022-10-29T11:33:17.394Z,101307.19
2022-10-29T11:36:01.581Z,101284.38
2022-10-29T11:38:42.801Z,101285.72
2022-10-29T11:41:47.726Z,101304.47
2022-10-29T11:44:29.126Z,101190.78
2022-10-29T11:47:05.579Z,101301.72
2022-10-29T11:50:06.846Z,101296.97
2022-10-29T11:52:57.259Z,101296.97
2022-10-29T11:55:33.910Z,101178.78
2022-10-29T11:58:22.263Z,101293.84
2022-10-29T12:00:54.427Z,101233.31
2022-10-29T12:04:01.508Z,101292.31
2022-10-29T12:06:55.002Z,101284.66
2022-10-29T12:09:24.173Z,101185.06
2022-10-29T12:12:09.800Z,101274.09
2022-10-29T12:14:48.154Z,101166.91
2022-10-29T12:17:23.184Z,101165.25
2022-10-29T12:20:17.593Z,101258.94
2022-10-29T12:23:12.003Z,101251.88
2022-10-29T12:26:12.506Z,101260.84
2022-10-29T12:29:00.422Z,101227.28
2022-10-29T12:31:30.967Z,101148.69
2022-10-29T12:34:33.796Z,101128.91
2022-10-29T12:37:22.621Z,101105.59
2022-10-29T12:39:59.861Z,101136.41
2022-10-29T12:42:30.496Z,101234.66
2022-10-29T12:45:21.594Z,101229.44
2022-10-29T12:48:00.561Z,101232.06
2022-10-29T12:50:45.668Z,101232.56
2022-10-29T12:53:24.112Z,101222.03
2022-10-29T12:55:54.205Z,101055.38
2022-10-29T12:58:45.197Z,101231.44
2022-10-29T13:01:43.837Z,101166.91
2022-10-29T13:04:25.955Z,101221.34
2022-10-29T13:09:48.509Z,101176.06
2022-10-29T13:13:06.463Z,101223.16
2022-10-29T13:15:43.924Z,101179.59
2022-10-29T13:18:22.951Z,101149.31
2022-10-29T13:20:52.326Z,101180.78
2022-10-29T13:23:22.133Z,101168.56
2022-10-29T13:25:56.593Z,101203.88
2022-10-29T13:28:25.654Z,101217.00
2022-10-29T13:31:12.522Z,101199.44
2022-10-29T13:33:41.416Z,101221.59
2022-10-29T13:36:16.348Z,101151.50
2022-10-29T13:39:05.114Z,101051.50
2022-10-29T13:41:42.889Z,101179.88
2022-10-29T13:44:26.246Z,101200.41
2022-10-29T13:47:10.598Z,101025.66
2022-10-29T13:49:37.580Z,101216.44
2022-10-29T13:52:06.804Z,101182.25
2022-10-29T13:54:47.007Z,101161.50
2022-10-29T13:57:25.240Z,101220.00
2022-10-29T14:00:16.213Z,101172.56
2022-10-29T14:02:45.192Z,101207.13
2022-10-29T14:05:14.787Z,101198.00
2022-10-29T14:07:59.270Z,101194.38
2022-10-29T14:11:01.002Z,101194.72
2022-10-29T14:13:57.008Z,101195.16
2022-10-29T14:20:35.863Z,101182.19
2022-10-29T14:23:11.208Z,101164.59
2022-10-29T14:25:42.870Z,101145.94
2022-10-29T14:28:37.166Z,101209.44
2022-10-29T14:31:12.326Z,101214.91
2022-10-29T14:33:59.153Z,101217.09
2022-10-29T14:36:43.791Z,101107.47
2022-10-29T14:39:28.823Z,101168.75
2022-10-29T14:42:11.823Z,101075.13
2022-10-29T14:44:39.554Z,101070.41
2022-10-29T14:47:13.966Z,101206.06
2022-10-29T14:49:45.906Z,101141.63
2022-10-29T14:52:28.220Z,101077.66
2022-10-29T14:55:04.976Z,101108.88
2022-10-29T14:57:35.877Z,101192.19
2022-10-29T15:00:05.497Z,101114.47
2022-10-29T15:02:39.922Z,101176.72
2022-10-29T15:05:45.895Z,101192.28
2022-10-29T15:08:19.031Z,101117.63
2022-10-29T15:10:53.990Z,101083.31
2022-10-29T15:13:27.900Z,101188.19
2022-10-29T15:15:59.309Z,101067.13
2022-10-29T15:18:31.494Z,101177.34
2022-10-29T15:21:00.607Z,101037.22
2022-10-29T15:23:35.502Z,101179.78
2022-10-29T15:26:07.573Z,101117.13
2022-10-29T15:28:44.449Z,101173.84
2022-10-29T15:31:24.366Z,101072.88
2022-10-29T15:33:57.310Z,101162.69
2022-10-29T15:36:26.614Z,101108.25
2022-10-29T15:39:17.678Z,101100.31
2022-10-29T15:41:48.000Z,101149.22
2022-10-29T15:44:35.477Z,101182.94
2022-10-29T15:47:17.150Z,101184.47
2022-10-29T15:49:46.471Z,101099.66
2022-10-29T15:52:16.710Z,101068.25
2022-10-29T15:54:49.095Z,101011.72
2022-10-29T15:57:18.542Z,101208.25
2022-10-29T15:59:55.800Z,101148.28
2022-10-29T16:02:25.401Z,101221.56
2022-10-29T16:04:54.352Z,101169.91
2022-10-29T16:07:21.049Z,101204.84
2022-10-29T16:09:50.601Z,101166.69
2022-10-29T16:12:20.213Z,101120.34
2022-10-29T16:14:52.265Z,101201.78
2022-10-29T16:17:30.989Z,101160.00
2022-10-29T16:20:00.476Z,101083.03
2022-10-29T16:22:30.173Z,101061.56
2022-10-29T16:24:59.659Z,101174.19
2022-10-29T16:27:28.929Z,101116.94
2022-10-29T16:29:56.704Z,101173.03
2022-10-29T16:32:26.774Z,101034.69
2022-10-29T16:34:59.199Z,101152.72
2022-10-29T16:37:43.746Z,101080.00
2022-10-29T16:40:14.402Z,101187.69
2022-10-29T16:42:44.819Z,100887.00
2022-10-29T16:45:18.778Z,101154.84
2022-10-29T16:47:45.781Z,101159.88
2022-10-29T16:50:24.088Z,101184.63
2022-10-29T16:53:00.715Z,101192.47
2022-10-29T16:55:35.964Z,101188.66
2022-10-29T16:58:02.743Z,101082.84
2022-10-29T17:01:05.418Z,101190.97
2022-10-29T17:03:35.426Z,101184.94
2022-10-29T17:06:04.554Z,101097.66
2022-10-29T17:08:37.036Z,101185.66
2022-10-29T17:11:06.131Z,101116.78
2022-10-29T17:13:34.551Z,101137.84
2022-10-29T17:16:04.584Z,101207.34
2022-10-29T17:18:32.486Z,101147.50
2022-10-29T17:21:00.392Z,101202.00
2022-10-29T17:23:34.692Z,101093.22
2022-10-29T17:26:01.968Z,101171.22
2022-10-29T17:28:29.085Z,101097.84
2022-10-29T17:30:57.971Z,101175.41
2022-10-29T17:33:30.293Z,101059.84
2022-10-29T17:36:04.327Z,101177.53
2022-10-29T17:38:31.231Z,100981.66
2022-10-29T17:41:04.323Z,101141.56
2022-10-29T17:43:33.384Z,101054.41
2022-10-29T17:46:06.493Z,101094.38
2022-10-29T17:48:40.375Z,101137.75
2022-10-29T17:51:10.846Z,101006.38
2022-10-29T17:53:38.936Z,101128.03
2022-10-29T17:56:06.323Z,101125.44
2022-10-29T17:58:32.975Z,101072.84
2022-10-29T18:01:04.834Z,101113.59
2022-10-29T18:03:33.299Z,101056.91
2022-10-29T18:06:01.955Z,101068.28
2022-10-29T18:08:32.075Z,101113.50
2022-10-29T18:11:07.531Z,101176.47
2022-10-29T18:13:39.308Z,101165.94
2022-10-29T18:16:06.321Z,101090.13
2022-10-29T18:18:54.396Z,101079.59
2022-10-29T18:21:30.661Z,101188.75
2022-10-29T18:23:57.511Z,101177.44
2022-10-29T18:26:34.756Z,101184.09
2022-10-29T18:29:12.048Z,101068.22
2022-10-29T18:31:42.197Z,101195.28
2022-10-29T18:34:09.569Z,101096.41
2022-10-29T18:36:36.265Z,101054.22
2022-10-29T18:39:04.870Z,101194.69
2022-10-29T18:41:31.818Z,101096.44
2022-10-29T18:44:06.136Z,101065.44
2022-10-29T18:46:33.995Z,101076.03
2022-10-29T18:49:01.064Z,101117.22
2022-10-29T18:51:34.043Z,101042.03
2022-10-29T18:54:00.781Z,101151.69
2022-10-29T18:56:31.144Z,101145.34
2022-10-29T18:59:01.132Z,101094.47
2022-10-29T19:01:32.174Z,101090.97
2022-10-29T19:04:05.282Z,101136.09
2022-10-29T19:06:34.240Z,101093.44
2022-10-29T19:09:05.127Z,101057.38
2022-10-29T19:11:31.953Z,101117.34
2022-10-29T19:14:00.637Z,101146.69
2022-10-29T19:16:47.129Z,101124.75
2022-10-29T19:19:21.279Z,101106.78
2022-10-29T19:21:53.510Z,101144.25
2022-10-29T19:24:24.657Z,101009.22
2022-10-29T19:26:51.401Z,101029.38
2022-10-29T19:29:20.623Z,101000.38
2022-10-29T19:32:00.881Z,101049.38
2022-10-29T19:34:56.998Z,100959.81
2022-10-29T19:37:26.489Z,101062.63
2022-10-29T19:39:56.492Z,101093.88
2022-10-29T19:42:23.172Z,101137.75
2022-10-29T19:44:53.590Z,101090.16
2022-10-29T19:47:26.383Z,100975.34
2022-10-29T19:49:53.101Z,101028.25
2022-10-29T19:52:19.858Z,101089.53
2022-10-29T19:54:53.765Z,101002.94
2022-10-29T19:57:20.479Z,101026.00
2022-10-29T19:59:49.555Z,101095.31
2022-10-29T20:02:16.508Z,101121.25
2022-10-29T20:04:43.934Z,101009.81
2022-10-29T20:07:13.314Z,100999.22
2022-10-29T20:09:39.861Z,101116.81
2022-10-29T20:12:10.340Z,101046.19
2022-10-29T20:14:38.457Z,101116.00
2022-10-29T20:17:09.911Z,101002.47
2022-10-29T20:19:36.649Z,101123.81
2022-10-29T20:22:03.480Z,101123.94
2022-10-29T20:24:32.245Z,101009.16
2022-10-29T20:26:58.955Z,100936.44
2022-10-29T20:29:27.827Z,100999.84
2022-10-29T20:31:56.662Z,101038.84
2022-10-29T20:34:28.280Z,101128.41
2022-10-29T20:36:55.165Z,101007.44
2022-10-29T20:39:32.407Z,100910.19
2022-10-29T20:42:02.303Z,101066.03
2022-10-29T20:44:29.207Z,101052.00
2022-10-29T20:46:58.863Z,101016.72
2022-10-29T20:49:30.011Z,101070.63
2022-10-29T20:51:56.751Z,101072.38
2022-10-29T20:54:23.446Z,100948.56
2022-10-29T20:56:53.081Z,100983.94
2022-10-29T20:59:19.903Z,101128.38
2022-10-29T21:01:49.936Z,100949.75
2022-10-29T21:04:20.909Z,101123.16
2022-10-29T21:06:49.936Z,101034.66
2022-10-29T21:09:19.153Z,101057.75
2022-10-29T21:11:45.838Z,101029.34
2022-10-29T21:14:12.633Z,101118.09
2022-10-29T21:16:41.414Z,101039.19
2022-10-29T21:19:08.201Z,101056.63
2022-10-29T21:21:38.034Z,100978.22
2022-10-29T21:24:07.382Z,101115.31
2022-10-29T21:26:36.283Z,101103.78
2022-10-29T21:29:03.216Z,100933.78
2022-10-29T21:31:43.084Z,101065.53
2022-10-29T21:34:13.032Z,101052.53
2022-10-29T21:36:39.685Z,101131.25
2022-10-29T21:39:11.151Z,101031.38
2022-10-29T21:41:37.921Z,101002.97
2022-10-29T21:44:04.869Z,101016.88
2022-10-29T21:46:34.100Z,100983.25
2022-10-29T21:49:03.438Z,101087.06
2022-10-29T21:51:30.159Z,101090.44
2022-10-29T21:53:59.011Z,101144.44
2022-10-29T21:59:24.741Z,101124.84
2022-10-29T22:01:51.452Z,101030.69
2022-10-29T22:04:18.267Z,100960.25
2022-10-29T22:06:45.089Z,101008.28
2022-10-29T22:09:11.938Z,100902.16
2022-10-29T22:11:38.607Z,101001.41
2022-10-29T22:14:07.988Z,100956.19
2022-10-29T22:16:34.679Z,101011.94
2022-10-29T22:19:03.922Z,101073.81
2022-10-29T22:21:33.402Z,101029.63
2022-10-29T22:24:02.779Z,100944.59
2022-10-29T22:26:32.161Z,101122.97
2022-10-29T22:29:01.119Z,101104.09
2022-10-29T22:31:27.850Z,101125.84
2022-10-29T22:33:54.693Z,100939.47
2022-10-29T22:36:23.507Z,101028.91
2022-10-29T22:38:54.438Z,101086.44
2022-10-29T22:41:23.731Z,100996.09
2022-10-29T22:43:55.468Z,100996.78
2022-10-29T22:46:22.770Z,101023.09
2022-10-29T22:48:52.057Z,100992.34
2022-10-29T22:51:21.845Z,101093.28
2022-10-29T22:53:51.494Z,101085.78
2022-10-29T22:56:19.391Z,101085.63
2022-10-29T22:58:46.351Z,101085.44
2022-10-29T23:01:17.545Z,100967.75
2022-10-29T23:03:50.363Z,101053.63
2022-10-29T23:06:19.569Z,101087.41
2022-10-29T23:08:48.203Z,101077.94
2022-10-29T23:11:19.729Z,101018.97
2022-10-29T23:13:47.579Z,100990.28
2022-10-29T23:16:15.857Z,101084.59
2022-10-29T23:18:42.562Z,100939.56
2022-10-29T23:21:09.538Z,101022.25
2022-10-29T23:23:40.696Z,101074.41
2022-10-29T23:26:11.425Z,101055.88
2022-10-29T23:28:39.605Z,101095.09
2022-10-29T23:31:10.265Z,101085.56
2022-10-29T23:33:39.565Z,100961.19
2022-10-29T23:36:09.351Z,101034.59
2022-10-29T23:38:38.179Z,100967.25
2022-10-29T23:41:05.180Z,101091.69
2022-10-29T23:43:38.816Z,100952.97
2022-10-29T23:46:07.649Z,101035.94
2022-10-29T23:48:37.422Z,101066.53
2022-10-29T23:51:08.832Z,101028.97
2022-10-29T23:53:35.994Z,100972.16
2022-10-29T23:56:03.090Z,100999.16
2022-10-29T23:58:29.738Z,100889.91
